Time;durP1;ratioP1;P1;durP2;ratioP2;P2;SDS_P1;SDS_P2;PMS_P1;PMS_P2;Temp;Humidity;BMP_temperature;BMP_pressure;BME280_temperature;BME280_humidity;BME280_pressure;Samples;Min_cycle;Max_cycle;Signal;HPM_P1;HPM_P2
2023/06/13 00:00:33;;;;;;;0.90;0.70;;;;;;;;;;5079955;28;20031;-86
2023/06/13 00:03:00;;;;;;;1.83;0.70;;;;;;;;;;5079937;28;20052;-86
2023/06/13 00:05:26;;;;;;;0.70;0.63;;;;;;;;;;5088267;28;20026;-85
2023/06/13 00:08:00;;;;;;;2.90;1.50;;;;;;;;;;5089620;28;20118;-86
2023/06/13 00:10:34;;;;;;;2.80;1.10;;;;;;;;;;5119716;27;20023;-85
2023/06/13 00:13:13;;;;;;;1.63;1.38;;;;;;;;;;5098598;28;20067;-86
2023/06/13 00:15:49;;;;;;;1.02;0.50;;;;;;;;;;5078563;28;20390;-89
2023/06/13 00:18:23;;;;;;;0.93;0.68;;;;;;;;;;5089428;28;20024;-87
2023/06/13 00:20:52;;;;;;;2.47;1.30;;;;;;;;;;5113843;27;20089;-85
2023/06/13 00:23:20;;;;;;;2.00;0.82;;;;;;;;;;5084316;28;20027;-87
2023/06/13 00:25:49;;;;;;;1.67;1.42;;;;;;;;;;5083174;28;20053;-86
2023/06/13 00:28:31;;;;;;;1.35;1.10;;;;;;;;;;5085417;28;20028;-88
2023/06/13 00:30:59;;;;;;;2.10;0.88;;;;;;;;;;5083210;28;20490;-85
2023/06/13 00:33:31;;;;;;;2.17;1.10;;;;;;;;;;5093321;28;20027;-86
2023/06/13 00:35:57;;;;;;;1.55;0.93;;;;;;;;;;5076929;28;20028;-86
2023/06/13 00:38:28;;;;;;;1.30;1.02;;;;;;;;;;5106345;28;20027;-86
2023/06/13 00:40:54;;;;;;;1.55;0.73;;;;;;;;;;5082326;28;20471;-84
2023/06/13 00:43:26;;;;;;;1.02;0.85;;;;;;;;;;5084866;28;20035;-85
2023/06/13 00:45:52;;;;;;;0.68;0.68;;;;;;;;;;5072213;28;20110;-85
2023/06/13 00:48:18;;;;;;;0.70;0.40;;;;;;;;;;5113830;27;20075;-85
2023/06/13 00:50:44;;;;;;;1.30;1.20;;;;;;;;;;5087764;28;20038;-85
2023/06/13 00:53:16;;;;;;;1.17;0.95;;;;;;;;;;5124749;27;20039;-85
2023/06/13 00:55:45;;;;;;;1.15;1.05;;;;;;;;;;5084407;28;20133;-85
2023/06/13 00:58:15;;;;;;;1.45;1.02;;;;;;;;;;5078486;28;20472;-86
2023/06/13 01:00:43;;;;;;;0.68;0.68;;;;;;;;;;5085980;28;20029;-85
2023/06/13 01:03:15;;;;;;;0.28;0.28;;;;;;;;;;5074014;28;20031;-84
2023/06/13 01:05:45;;;;;;;0.82;0.52;;;;;;;;;;5085979;28;20032;-85
2023/06/13 01:08:27;;;;;;;0.60;0.60;;;;;;;;;;5098585;28;20027;-86
2023/06/13 01:11:23;;;;;;;0.52;0.45;;;;;;;;;;5095910;28;20029;-86
2023/06/13 01:14:01;;;;;;;0.93;0.85;;;;;;;;;;5114346;27;20047;-84
2023/06/13 01:16:51;;;;;;;2.33;0.82;;;;;;;;;;5085705;28;20075;-88
2023/06/13 01:19:28;;;;;;;;;;;;;;;;;;5080338;28;20036;-86
2023/06/13 01:21:56;;;;;;;1.05;0.77;;;;;;;;;;5085935;28;19912;-87
2023/06/13 01:25:00;;;;;;;0.65;0.63;;;;;;;;;;5086592;28;20081;-86
2023/06/13 01:27:27;;;;;;;0.50;0.50;;;;;;;;;;5087579;28;20851;-88
2023/06/13 01:30:02;;;;;;;2.50;1.55;;;;;;;;;;5102137;28;20101;-87
2023/06/13 01:32:29;;;;;;;1.75;1.08;;;;;;;;;;5080201;28;20024;-87
2023/06/13 01:34:58;;;;;;;1.08;0.65;;;;;;;;;;5081377;28;20038;-86
2023/06/13 01:37:24;;;;;;;0.73;0.57;;;;;;;;;;5071949;28;20023;-86
2023/06/13 01:39:57;;;;;;;0.65;0.63;;;;;;;;;;5082827;28;20044;-86
2023/06/13 01:42:29;;;;;;;0.30;0.30;;;;;;;;;;5079028;28;20117;-88
2023/06/13 01:44:55;;;;;;;2.67;1.08;;;;;;;;;;5098822;28;20024;-85
2023/06/13 01:47:32;;;;;;;1.98;1.13;;;;;;;;;;5085119;28;20050;-86
2023/06/13 01:50:14;;;;;;;0.35;0.30;;;;;;;;;;5086568;28;20442;-85
2023/06/13 01:53:04;;;;;;;1.95;1.17;;;;;;;;;;5094510;28;20031;-90
2023/06/13 01:55:43;;;;;;;0.73;0.60;;;;;;;;;;5078425;28;20404;-85
2023/06/13 01:58:45;;;;;;;0.30;0.30;;;;;;;;;;5082902;28;20031;-85
2023/06/13 02:01:13;;;;;;;1.70;1.20;;;;;;;;;;5081291;28;20032;-84
2023/06/13 02:03:39;;;;;;;0.63;0.43;;;;;;;;;;5094390;28;20028;-85
2023/06/13 02:06:05;;;;;;;0.57;0.47;;;;;;;;;;5085744;28;20027;-86
2023/06/13 02:08:31;;;;;;;0.73;0.60;;;;;;;;;;5084003;28;20036;-88
2023/06/13 02:10:57;;;;;;;0.50;0.50;;;;;;;;;;5105152;28;20032;-85
2023/06/13 02:13:23;;;;;;;0.82;0.57;;;;;;;;;;5086149;28;20460;-87
2023/06/13 02:15:49;;;;;;;1.42;1.02;;;;;;;;;;5091626;28;20464;-87
2023/06/13 02:18:17;;;;;;;0.60;0.60;;;;;;;;;;5082677;28;20023;-86
2023/06/13 02:20:43;;;;;;;0.50;0.50;;;;;;;;;;5082895;28;20032;-85
2023/06/13 02:23:09;;;;;;;0.98;0.50;;;;;;;;;;5083320;28;20035;-86
2023/06/13 02:25:35;;;;;;;0.25;0.22;;;;;;;;;;5097250;28;20031;-86
2023/06/13 02:28:03;;;;;;;0.85;0.73;;;;;;;;;;5076571;28;20038;-86
2023/06/13 02:30:29;;;;;;;1.02;0.80;;;;;;;;;;5084766;28;20507;-87
2023/06/13 02:32:55;;;;;;;1.00;0.73;;;;;;;;;;5083499;28;20036;-86
2023/06/13 02:35:23;;;;;;;0.95;0.57;;;;;;;;;;5100222;28;20035;-87
2023/06/13 02:37:55;;;;;;;0.77;0.77;;;;;;;;;;5112184;27;20046;-88
2023/06/13 02:40:22;;;;;;;0.98;0.60;;;;;;;;;;5069329;28;20073;-86
2023/06/13 02:42:49;;;;;;;1.38;0.60;;;;;;;;;;5084276;28;20038;-86
2023/06/13 02:45:18;;;;;;;2.35;1.00;;;;;;;;;;5075219;28;20028;-86
2023/06/13 02:47:44;;;;;;;0.67;0.67;;;;;;;;;;5123068;27;20054;-87
2023/06/13 02:50:13;;;;;;;0.73;0.70;;;;;;;;;;5103144;28;20472;-87
2023/06/13 02:52:38;;;;;;;0.32;0.32;;;;;;;;;;5108206;28;20032;-86
2023/06/13 02:55:08;;;;;;;0.32;0.30;;;;;;;;;;5083788;28;20498;-85
2023/06/13 02:57:36;;;;;;;0.63;0.63;;;;;;;;;;5082760;28;20032;-85
2023/06/13 03:00:17;;;;;;;1.00;0.70;;;;;;;;;;5083174;28;20028;-88
2023/06/13 03:02:49;;;;;;;1.17;0.80;;;;;;;;;;5088255;28;20028;-85
2023/06/13 03:05:15;;;;;;;0.45;0.45;;;;;;;;;;5080573;28;20028;-88
2023/06/13 03:07:48;;;;;;;2.00;0.98;;;;;;;;;;5081707;28;20035;-88
2023/06/13 03:10:20;;;;;;;2.08;1.15;;;;;;;;;;5105406;28;20345;-88
2023/06/13 03:12:48;;;;;;;0.52;0.50;;;;;;;;;;5082378;28;20567;-89
2023/06/13 03:15:16;;;;;;;0.32;0.32;;;;;;;;;;5117668;27;20063;-86
2023/06/13 03:17:42;;;;;;;1.27;1.05;;;;;;;;;;5077475;28;20070;-88
2023/06/13 03:20:11;;;;;;;1.13;0.70;;;;;;;;;;5074714;28;20028;-88
2023/06/13 03:22:44;;;;;;;0.82;0.45;;;;;;;;;;5081081;28;20024;-87
2023/06/13 03:25:17;;;;;;;1.05;0.95;;;;;;;;;;5083517;28;20055;-89
2023/06/13 03:27:43;;;;;;;0.70;0.60;;;;;;;;;;5078650;28;20165;-87
2023/06/13 03:30:09;;;;;;;1.40;1.00;;;;;;;;;;5078335;28;20530;-87
2023/06/13 03:32:36;;;;;;;0.50;0.50;;;;;;;;;;5094935;28;20023;-88
2023/06/13 03:35:10;;;;;;;3.45;1.60;;;;;;;;;;5095492;28;20031;-87
2023/06/13 03:37:43;;;;;;;0.70;0.70;;;;;;;;;;5073917;28;20035;-87
2023/06/13 03:40:12;;;;;;;0.80;0.75;;;;;;;;;;5074140;28;20040;-86
2023/06/13 03:42:38;;;;;;;0.88;0.80;;;;;;;;;;5078063;28;20028;-88
2023/06/13 03:45:15;;;;;;;1.85;1.33;;;;;;;;;;5071480;28;20077;-90
2023/06/13 03:47:50;;;;;;;1.27;0.95;;;;;;;;;;5077755;28;20035;-87
2023/06/13 03:50:15;;;;;;;0.98;0.60;;;;;;;;;;5077184;28;20035;-88
2023/06/13 03:52:41;;;;;;;0.20;0.20;;;;;;;;;;5086535;28;20027;-88
2023/06/13 03:55:10;;;;;;;1.67;1.02;;;;;;;;;;5078057;28;20058;-87
2023/06/13 03:57:56;;;;;;;1.08;0.73;;;;;;;;;;5080583;28;20032;-87
2023/06/13 04:00:22;;;;;;;2.10;1.05;;;;;;;;;;5088259;28;20020;-86
2023/06/13 04:02:48;;;;;;;0.80;0.75;;;;;;;;;;5090403;28;20567;-86
2023/06/13 04:05:13;;;;;;;1.45;1.35;;;;;;;;;;5098804;28;20464;-87
2023/06/13 04:07:39;;;;;;;1.20;0.73;;;;;;;;;;5074049;28;20024;-87
2023/06/13 04:10:05;;;;;;;0.82;0.77;;;;;;;;;;5084322;28;20120;-85
2023/06/13 04:12:31;;;;;;;1.65;1.02;;;;;;;;;;5076811;28;20453;-84
2023/06/13 04:15:03;;;;;;;3.25;1.65;;;;;;;;;;5081732;28;20419;-85
2023/06/13 04:17:28;;;;;;;2.05;1.45;;;;;;;;;;5074369;28;20036;-86
2023/06/13 04:19:54;;;;;;;2.17;1.48;;;;;;;;;;5076330;28;20054;-84
2023/06/13 04:22:23;;;;;;;2.08;1.35;;;;;;;;;;5068462;28;20131;-85
2023/06/13 04:24:48;;;;;;;2.28;1.55;;;;;;;;;;5092793;28;20028;-82
2023/06/13 04:27:19;;;;;;;3.90;1.70;;;;;;;;;;5075412;28;20043;-83
2023/06/13 04:29:47;;;;;;;1.30;1.02;;;;;;;;;;5081714;28;20097;-82
2023/06/13 04:32:17;;;;;;;1.90;1.30;;;;;;;;;;5093615;28;20069;-83
2023/06/13 04:34:52;;;;;;;2.28;1.85;;;;;;;;;;5089781;28;20111;-82
2023/06/13 04:37:26;;;;;;;1.42;1.33;;;;;;;;;;5087806;28;20028;-82
2023/06/13 04:39:53;;;;;;;3.55;1.92;;;;;;;;;;5092540;28;20032;-81
2023/06/13 04:42:28;;;;;;;2.75;2.20;;;;;;;;;;5092094;28;20553;-82
2023/06/13 04:44:58;;;;;;;4.82;2.75;;;;;;;;;;5086304;28;20135;-81
2023/06/13 04:47:30;;;;;;;3.95;2.35;;;;;;;;;;5091766;28;20030;-81
2023/06/13 04:49:58;;;;;;;3.67;2.28;;;;;;;;;;5092930;28;20028;-82
2023/06/13 04:52:33;;;;;;;5.25;2.97;;;;;;;;;;5105316;28;20017;-81
2023/06/13 04:55:00;;;;;;;7.65;2.30;;;;;;;;;;5092837;28;20434;-81
2023/06/13 04:57:27;;;;;;;2.15;1.58;;;;;;;;;;5092985;28;20529;-81
2023/06/13 04:59:52;;;;;;;3.90;2.22;;;;;;;;;;5089270;28;20024;-81
2023/06/13 05:02:18;;;;;;;2.90;2.40;;;;;;;;;;5082608;28;20115;-84
2023/06/13 05:04:44;;;;;;;3.88;1.70;;;;;;;;;;5102326;28;20370;-84
2023/06/13 05:07:14;;;;;;;5.55;2.65;;;;;;;;;;5099573;28;20032;-85
2023/06/13 05:09:40;;;;;;;3.92;2.53;;;;;;;;;;5093830;28;20024;-84
2023/06/13 05:12:06;;;;;;;5.53;2.30;;;;;;;;;;5075882;28;20146;-84
2023/06/13 05:14:32;;;;;;;3.47;2.20;;;;;;;;;;5093174;28;20028;-85
2023/06/13 05:16:59;;;;;;;2.97;2.17;;;;;;;;;;5070413;28;20093;-84
2023/06/13 05:19:25;;;;;;;4.53;2.40;;;;;;;;;;5094042;28;20036;-84
2023/06/13 05:21:50;;;;;;;2.95;2.35;;;;;;;;;;5103006;28;20028;-85
2023/06/13 05:24:17;;;;;;;5.60;2.95;;;;;;;;;;5068247;28;20028;-82
2023/06/13 05:26:42;;;;;;;2.47;1.98;;;;;;;;;;5089844;28;20035;-85
2023/06/13 05:29:07;;;;;;;2.65;1.60;;;;;;;;;;5091972;28;20024;-83
2023/06/13 05:31:36;;;;;;;4.03;1.88;;;;;;;;;;5091136;28;20035;-83
2023/06/13 05:34:01;;;;;;;1.73;1.58;;;;;;;;;;5087155;28;20545;-83
2023/06/13 05:36:27;;;;;;;4.00;2.83;;;;;;;;;;5104816;28;20019;-84
2023/06/13 05:38:55;;;;;;;3.63;2.20;;;;;;;;;;5087196;28;20047;-84
2023/06/13 05:41:22;;;;;;;3.30;1.47;;;;;;;;;;5091223;28;20063;-86
2023/06/13 05:43:49;;;;;;;2.50;1.58;;;;;;;;;;5090228;28;20127;-84
2023/06/13 05:46:14;;;;;;;2.53;1.83;;;;;;;;;;5073991;28;20038;-83
2023/06/13 05:48:40;;;;;;;3.80;2.10;;;;;;;;;;5090809;28;20040;-82
2023/06/13 05:51:05;;;;;;;6.78;2.72;;;;;;;;;;5071672;28;20039;-82
2023/06/13 05:53:31;;;;;;;3.55;2.13;;;;;;;;;;5091737;28;20103;-82
2023/06/13 05:55:57;;;;;;;4.10;2.10;;;;;;;;;;5084831;28;20436;-82
2023/06/13 05:58:22;;;;;;;2.38;1.48;;;;;;;;;;5094327;28;20020;-82
2023/06/13 06:00:48;;;;;;;2.35;1.92;;;;;;;;;;5102804;28;20074;-83
2023/06/13 06:03:14;;;;;;;2.40;1.92;;;;;;;;;;5089601;28;20098;-83
2023/06/13 06:05:39;;;;;;;3.45;2.45;;;;;;;;;;5085887;28;20435;-83
2023/06/13 06:08:05;;;;;;;2.53;2.20;;;;;;;;;;5092798;28;20544;-83
2023/06/13 06:10:30;;;;;;;1.35;1.17;;;;;;;;;;5089112;28;20024;-82
2023/06/13 06:12:56;;;;;;;2.97;1.80;;;;;;;;;;5092383;28;20032;-83
2023/06/13 06:15:21;;;;;;;3.58;2.33;;;;;;;;;;5089501;28;20028;-85
2023/06/13 06:17:47;;;;;;;3.13;1.98;;;;;;;;;;5094350;28;20193;-83
2023/06/13 06:20:12;;;;;;;2.78;1.80;;;;;;;;;;5098590;28;20080;-83
2023/06/13 06:22:38;;;;;;;3.70;1.50;;;;;;;;;;5081977;28;20042;-82
2023/06/13 06:25:05;;;;;;;2.85;2.10;;;;;;;;;;5096295;28;20034;-82
2023/06/13 06:27:30;;;;;;;2.38;1.83;;;;;;;;;;5094794;28;20031;-82
2023/06/13 06:29:56;;;;;;;2.85;2.25;;;;;;;;;;5069984;28;20031;-82
2023/06/13 06:32:21;;;;;;;1.45;1.35;;;;;;;;;;5090634;28;20021;-82
2023/06/13 06:34:47;;;;;;;2.38;1.17;;;;;;;;;;5091413;28;20062;-82
2023/06/13 06:37:13;;;;;;;2.95;1.67;;;;;;;;;;5098912;28;20472;-82
2023/06/13 06:39:38;;;;;;;1.55;1.17;;;;;;;;;;5089788;28;20040;-81
2023/06/13 06:42:04;;;;;;;1.75;1.45;;;;;;;;;;5091799;28;20081;-87
2023/06/13 06:44:29;;;;;;;1.98;1.13;;;;;;;;;;5095120;28;20111;-84
2023/06/13 06:46:55;;;;;;;2.58;1.55;;;;;;;;;;5085686;28;20024;-84
2023/06/13 06:49:20;;;;;;;1.10;1.00;;;;;;;;;;5072857;28;20020;-83
2023/06/13 06:51:46;;;;;;;1.45;1.00;;;;;;;;;;5096085;28;20103;-83
2023/06/13 06:54:11;;;;;;;2.05;1.85;;;;;;;;;;5090243;28;20031;-83
2023/06/13 06:56:37;;;;;;;2.22;1.40;;;;;;;;;;5076786;28;20023;-82
2023/06/13 06:59:03;;;;;;;3.17;1.30;;;;;;;;;;5079029;28;20110;-83
2023/06/13 07:01:28;;;;;;;3.55;2.08;;;;;;;;;;5090281;28;20103;-83
2023/06/13 07:03:54;;;;;;;4.35;2.70;;;;;;;;;;5092291;28;20119;-83
2023/06/13 07:06:19;;;;;;;3.90;2.38;;;;;;;;;;5090003;28;20028;-82
2023/06/13 07:08:45;;;;;;;2.92;2.25;;;;;;;;;;5084794;28;20448;-84
2023/06/13 07:11:10;;;;;;;4.55;1.85;;;;;;;;;;5089028;28;20036;-86
2023/06/13 07:13:36;;;;;;;2.90;2.22;;;;;;;;;;5093250;28;20027;-84
2023/06/13 07:16:01;;;;;;;3.67;2.53;;;;;;;;;;5092054;28;20356;-84
2023/06/13 07:18:29;;;;;;;2.95;1.83;;;;;;;;;;5093903;28;20043;-85
2023/06/13 07:20:55;;;;;;;2.83;1.95;;;;;;;;;;5090516;28;20535;-86
2023/06/13 07:23:20;;;;;;;2.03;1.52;;;;;;;;;;5092174;28;20115;-85
2023/06/13 07:25:46;;;;;;;1.63;1.38;;;;;;;;;;5104930;28;20088;-86
2023/06/13 07:28:11;;;;;;;3.65;2.00;;;;;;;;;;5092651;28;20035;-87
2023/06/13 07:30:37;;;;;;;3.63;2.25;;;;;;;;;;5067896;28;20020;-86
2023/06/13 07:33:02;;;;;;;1.98;1.50;;;;;;;;;;5088722;28;20028;-86
2023/06/13 07:35:28;;;;;;;3.47;1.63;;;;;;;;;;5093903;28;20028;-85
2023/06/13 07:37:54;;;;;;;3.28;1.67;;;;;;;;;;5089932;28;20084;-85
2023/06/13 07:40:21;;;;;;;1.60;1.40;;;;;;;;;;5074913;28;20027;-86
2023/06/13 07:42:50;;;;;;;2.58;1.50;;;;;;;;;;5092042;28;20026;-85
2023/06/13 07:45:15;;;;;;;3.10;1.77;;;;;;;;;;5089326;28;20024;-88
2023/06/13 07:47:41;;;;;;;2.58;1.92;;;;;;;;;;5092190;28;20099;-88
2023/06/13 07:50:07;;;;;;;1.55;1.23;;;;;;;;;;5091231;28;20030;-86
2023/06/13 07:52:33;;;;;;;2.35;1.38;;;;;;;;;;5090582;28;20046;-83
2023/06/13 07:54:58;;;;;;;2.78;1.83;;;;;;;;;;5077033;28;20032;-85
2023/06/13 07:57:24;;;;;;;3.17;1.42;;;;;;;;;;5114954;28;20058;-85
2023/06/13 07:59:50;;;;;;;1.30;1.10;;;;;;;;;;5094231;28;20035;-87
2023/06/13 08:02:15;;;;;;;2.30;1.83;;;;;;;;;;5070211;28;20039;-85
2023/06/13 08:04:40;;;;;;;2.03;1.83;;;;;;;;;;5080129;28;20466;-85
2023/06/13 08:07:06;;;;;;;2.30;1.73;;;;;;;;;;5096073;28;20494;-84
2023/06/13 08:09:32;;;;;;;3.22;2.33;;;;;;;;;;5074332;28;20020;-84
2023/06/13 08:11:58;;;;;;;2.63;2.03;;;;;;;;;;5093080;28;20081;-87
2023/06/13 08:14:24;;;;;;;4.28;2.13;;;;;;;;;;5090828;28;20028;-87
2023/06/13 08:16:50;;;;;;;2.58;2.08;;;;;;;;;;5082818;28;20028;-83
2023/06/13 08:19:15;;;;;;;2.55;2.17;;;;;;;;;;5092941;28;20035;-84
2023/06/13 08:21:41;;;;;;;2.30;2.10;;;;;;;;;;5091763;28;20384;-86
2023/06/13 08:24:06;;;;;;;3.17;2.50;;;;;;;;;;5100537;28;20092;-84
2023/06/13 08:26:32;;;;;;;3.30;2.47;;;;;;;;;;5103307;28;20078;-85
2023/06/13 08:29:01;;;;;;;3.03;1.92;;;;;;;;;;5093479;28;20028;-86
2023/06/13 08:31:27;;;;;;;2.15;1.80;;;;;;;;;;5081338;28;20030;-85
2023/06/13 08:33:55;;;;;;;6.40;2.67;;;;;;;;;;5096370;28;20032;-85
2023/06/13 08:36:20;;;;;;;3.08;2.15;;;;;;;;;;5103886;28;20173;-85
2023/06/13 08:38:46;;;;;;;3.65;2.25;;;;;;;;;;5094811;28;20126;-85
2023/06/13 08:41:11;;;;;;;2.13;1.63;;;;;;;;;;5087854;28;20678;-89
2023/06/13 08:43:38;;;;;;;2.53;2.08;;;;;;;;;;5097093;28;20486;-85
2023/06/13 08:46:04;;;;;;;3.00;2.20;;;;;;;;;;5084657;28;20024;-86
2023/06/13 08:48:32;;;;;;;4.55;1.98;;;;;;;;;;5094418;28;20052;-85
2023/06/13 08:51:04;;;;;;;6.60;1.92;;;;;;;;;;5092153;28;20059;-86
2023/06/13 08:53:31;;;;;;;3.60;2.38;;;;;;;;;;5098221;28;20072;-85
2023/06/13 08:56:05;;;;;;;6.57;2.50;;;;;;;;;;5100317;28;20532;-85
2023/06/13 08:58:35;;;;;;;6.53;2.88;;;;;;;;;;5071555;28;20024;-85
2023/06/13 09:01:02;;;;;;;3.13;2.42;;;;;;;;;;5096885;28;20031;-85
2023/06/13 09:03:29;;;;;;;2.65;1.73;;;;;;;;;;5091683;28;20088;-85
2023/06/13 09:05:55;;;;;;;3.58;1.65;;;;;;;;;;5075256;28;20497;-87
2023/06/13 09:08:22;;;;;;;2.38;1.88;;;;;;;;;;5091164;28;20020;-86
2023/06/13 09:10:49;;;;;;;3.90;2.70;;;;;;;;;;5099427;28;20479;-87
2023/06/13 09:13:17;;;;;;;3.15;2.00;;;;;;;;;;5094174;28;20094;-85
2023/06/13 09:15:46;;;;;;;7.57;2.20;;;;;;;;;;5089737;28;20031;-86
2023/06/13 09:18:12;;;;;;;3.38;2.20;;;;;;;;;;5088578;28;20033;-86
2023/06/13 09:20:37;;;;;;;2.97;1.73;;;;;;;;;;5092021;28;20039;-85
2023/06/13 09:23:03;;;;;;;2.97;1.95;;;;;;;;;;5073238;28;20464;-84
2023/06/13 09:25:35;;;;;;;4.15;2.78;;;;;;;;;;5077247;28;20039;-83
2023/06/13 09:28:30;;;;;;;4.78;1.80;;;;;;;;;;5102056;28;20047;-82
2023/06/13 09:30:59;;;;;;;3.92;2.28;;;;;;;;;;5074306;28;20409;-83
2023/06/13 09:33:32;;;;;;;2.13;1.63;;;;;;;;;;5093263;28;20024;-85
2023/06/13 09:35:57;;;;;;;2.33;1.88;;;;;;;;;;5113048;27;20055;-82
2023/06/13 09:38:26;;;;;;;2.58;1.80;;;;;;;;;;5098213;28;20516;-83
2023/06/13 09:41:13;;;;;;;3.45;2.30;;;;;;;;;;5073939;28;20115;-84
2023/06/13 09:43:39;;;;;;;3.33;2.30;;;;;;;;;;5080274;28;20023;-83
2023/06/13 09:46:06;;;;;;;3.15;2.30;;;;;;;;;;5083802;28;20028;-85
2023/06/13 09:48:32;;;;;;;3.45;2.20;;;;;;;;;;5069355;28;20085;-82
2023/06/13 09:51:12;;;;;;;;;;;;;;;;;;;;;
2023/06/13 09:53:45;;;;;;;3.15;1.92;;;;;;;;;;5087068;28;20016;-82
2023/06/13 09:56:15;;;;;;;3.63;2.40;;;;;;;;;;5098013;28;20015;-83
2023/06/13 09:58:41;;;;;;;3.03;2.00;;;;;;;;;;5074521;28;20066;-83
2023/06/13 10:01:17;;;;;;;4.78;2.03;;;;;;;;;;5070927;28;20024;-83
2023/06/13 10:03:43;;;;;;;3.10;2.15;;;;;;;;;;5079670;28;20425;-83
2023/06/13 10:06:10;;;;;;;2.60;2.08;;;;;;;;;;5090859;28;20051;-82
2023/06/13 10:08:43;;;;;;;4.40;2.65;;;;;;;;;;5073573;28;20034;-83
2023/06/13 10:11:23;;;;;;;2.78;2.08;;;;;;;;;;5087484;28;20075;-82
2023/06/13 10:13:54;;;;;;;2.35;1.85;;;;;;;;;;5069432;28;20038;-82
2023/06/13 10:16:21;;;;;;;4.97;3.20;;;;;;;;;;5070938;28;20111;-82
2023/06/13 10:18:52;;;;;;;4.63;2.03;;;;;;;;;;5075181;28;20431;-83
2023/06/13 10:21:35;;;;;;;2.40;2.15;;;;;;;;;;5071049;28;20032;-82
2023/06/13 10:24:06;;;;;;;4.68;2.50;;;;;;;;;;5083440;28;20395;-83
2023/06/13 10:26:43;;;;;;;2.42;1.52;;;;;;;;;;5085473;28;20056;-82
2023/06/13 10:29:22;;;;;;;3.72;2.85;;;;;;;;;;5069344;28;20065;-82
2023/06/13 10:32:05;;;;;;;2.85;1.92;;;;;;;;;;5088466;28;20399;-83
2023/06/13 10:35:02;;;;;;;2.65;1.90;;;;;;;;;;5073468;28;20500;-83
2023/06/13 10:37:45;;;;;;;2.55;1.80;;;;;;;;;;5087602;28;20016;-84
2023/06/13 10:40:32;;;;;;;2.83;2.40;;;;;;;;;;5087063;28;20400;-83
2023/06/13 10:43:06;;;;;;;2.33;1.85;;;;;;;;;;5083438;28;20028;-83
2023/06/13 10:45:34;;;;;;;2.90;2.05;;;;;;;;;;5102452;28;20093;-83
2023/06/13 10:48:08;;;;;;;3.38;1.88;;;;;;;;;;5070879;28;20097;-83
2023/06/13 10:50:47;;;;;;;3.60;2.78;;;;;;;;;;5075976;28;20061;-83
2023/06/13 10:53:27;;;;;;;7.85;2.45;;;;;;;;;;5071853;28;20050;-83
2023/06/13 10:56:03;;;;;;;1.80;1.52;;;;;;;;;;5092282;28;20032;-83
2023/06/13 10:58:30;;;;;;;3.45;2.13;;;;;;;;;;5064184;28;20032;-83
2023/06/13 11:01:03;;;;;;;3.70;2.28;;;;;;;;;;5067555;28;20539;-83
2023/06/13 11:03:31;;;;;;;2.17;1.88;;;;;;;;;;5086323;28;20028;-82
2023/06/13 11:06:06;;;;;;;1.40;1.08;;;;;;;;;;5070270;28;20133;-83
2023/06/13 11:08:36;;;;;;;1.90;1.40;;;;;;;;;;5088972;28;20110;-82
2023/06/13 11:11:02;;;;;;;2.50;1.52;;;;;;;;;;5068866;28;20036;-82
2023/06/13 11:13:32;;;;;;;2.47;1.85;;;;;;;;;;5091821;28;20032;-83
2023/06/13 11:16:36;;;;;;;1.75;1.45;;;;;;;;;;5085810;28;20107;-83
2023/06/13 11:19:15;;;;;;;1.35;1.20;;;;;;;;;;5076975;28;20391;-84
2023/06/13 11:22:10;;;;;;;2.58;1.58;;;;;;;;;;5065324;28;20416;-83
2023/06/13 11:24:40;;;;;;;1.48;1.33;;;;;;;;;;5070894;28;20088;-83
2023/06/13 11:27:06;;;;;;;;;;;;;;;;;;5095411;28;20112;-83
2023/06/13 11:46:11;;;;;;;2.42;1.52;;;;;;;;;;5089226;27;20467;-84
2023/06/13 11:48:37;;;;;;;4.30;1.58;;;;;;;;;;5078934;28;20039;-83
2023/06/13 11:51:15;;;;;;;1.17;1.05;;;;;;;;;;5068975;28;20112;-81
2023/06/13 11:53:54;;;;;;;1.55;1.20;;;;;;;;;;5064728;28;20027;-81
2023/06/13 11:56:24;;;;;;;1.48;0.98;;;;;;;;;;5069180;28;20070;-82
2023/06/13 11:58:53;;;;;;;1.33;1.23;;;;;;;;;;5069440;28;21216;-82
2023/06/13 12:01:23;;;;;;;2.35;1.40;;;;;;;;;;5069439;28;20524;-81
2023/06/13 12:03:48;;;;;;;;;;;;;;;;;;5069938;28;20101;-81
2023/06/13 12:06:15;;;;;;;1.92;1.35;;;;;;;;;;5070035;28;19917;-83
2023/06/13 12:08:44;;;;;;;1.60;1.50;;;;;;;;;;5068370;28;20692;-82
2023/06/13 12:11:11;;;;;;;2.53;1.75;;;;;;;;;;5063714;28;20024;-83
2023/06/13 12:13:37;;;;;;;3.85;1.77;;;;;;;;;;5066451;28;20499;-82
2023/06/13 12:16:07;;;;;;;6.22;1.83;;;;;;;;;;5071280;28;20020;-85
2023/06/13 12:18:32;;;;;;;4.05;2.20;;;;;;;;;;5069424;28;20036;-88
2023/06/13 12:20:59;;;;;;;2.63;1.88;;;;;;;;;;5070852;28;20029;-85
2023/06/13 12:23:28;;;;;;;2.58;1.77;;;;;;;;;;5070248;28;20082;-86
2023/06/13 12:25:54;;;;;;;2.50;1.57;;;;;;;;;;5063190;28;20041;-86
2023/06/13 12:28:21;;;;;;;1.80;1.13;;;;;;;;;;5072381;28;20533;-84
2023/06/13 12:30:49;;;;;;;2.70;1.83;;;;;;;;;;5066331;28;20060;-83
2023/06/13 12:33:18;;;;;;;6.80;1.20;;;;;;;;;;5073848;28;20024;-85
2023/06/13 12:35:52;;;;;;;3.22;2.38;;;;;;;;;;5079735;28;20028;-86
2023/06/13 12:38:29;;;;;;;1.75;1.23;;;;;;;;;;5071259;28;20028;-89
2023/06/13 12:40:55;;;;;;;1.92;1.33;;;;;;;;;;5070797;28;20029;-86
2023/06/13 12:43:30;;;;;;;1.33;1.13;;;;;;;;;;5063070;28;20024;-83
2023/06/13 12:45:58;;;;;;;2.45;1.67;;;;;;;;;;5047057;28;20048;-86
2023/06/13 12:48:24;;;;;;;1.52;1.35;;;;;;;;;;5046768;28;20031;-85
2023/06/13 12:50:51;;;;;;;2.15;1.50;;;;;;;;;;4983934;28;20117;-88
2023/06/13 12:53:22;;;;;;;1.27;0.73;;;;;;;;;;5003942;28;20037;-86
2023/06/13 12:55:51;;;;;;;2.47;1.75;;;;;;;;;;5022317;28;20026;-87
2023/06/13 12:58:30;;;;;;;2.60;1.40;;;;;;;;;;5026249;28;20364;-87
2023/06/13 13:00:56;;;;;;;2.13;1.08;;;;;;;;;;5003422;28;20604;-89
2023/06/13 13:03:22;;;;;;;2.65;1.48;;;;;;;;;;5002841;28;20386;-87
2023/06/13 13:05:50;;;;;;;2.45;1.45;;;;;;;;;;5011553;28;20036;-86
2023/06/13 13:08:17;;;;;;;2.75;1.30;;;;;;;;;;5017717;28;20103;-85
2023/06/13 13:10:43;;;;;;;2.15;1.23;;;;;;;;;;5073608;28;20041;-87
2023/06/13 13:13:12;;;;;;;2.13;1.30;;;;;;;;;;5010054;28;20078;-87
2023/06/13 13:15:38;;;;;;;1.88;1.55;;;;;;;;;;5013228;28;20055;-86
2023/06/13 13:18:04;;;;;;;3.47;1.35;;;;;;;;;;4992135;28;20553;-88
2023/06/13 13:20:29;;;;;;;1.58;1.08;;;;;;;;;;5047867;28;20539;-88
2023/06/13 13:22:55;;;;;;;1.15;1.05;;;;;;;;;;5034780;28;20042;-87
2023/06/13 13:25:20;;;;;;;1.70;1.10;;;;;;;;;;5015906;28;20052;-87
2023/06/13 13:27:47;;;;;;;1.65;1.50;;;;;;;;;;5046983;28;20031;-87
2023/06/13 13:30:13;;;;;;;1.33;1.17;;;;;;;;;;5039966;28;20113;-90
2023/06/13 13:32:39;;;;;;;1.73;1.63;;;;;;;;;;4993824;28;20459;-87
2023/06/13 13:35:05;;;;;;;1.50;0.98;;;;;;;;;;5031431;28;20024;-86
2023/06/13 13:37:30;;;;;;;1.85;1.30;;;;;;;;;;5028025;28;20048;-84
2023/06/13 13:39:57;;;;;;;1.10;0.85;;;;;;;;;;5021971;28;20029;-85
2023/06/13 13:42:22;;;;;;;2.20;0.90;;;;;;;;;;5011229;28;20032;-85
2023/06/13 13:44:48;;;;;;;1.83;1.30;;;;;;;;;;5029275;28;20054;-89
2023/06/13 13:47:13;;;;;;;1.60;1.13;;;;;;;;;;5012064;28;20033;-87
2023/06/13 13:49:39;;;;;;;1.88;1.13;;;;;;;;;;5013555;28;20035;-87
2023/06/13 13:52:05;;;;;;;2.97;1.48;;;;;;;;;;5004168;28;20033;-85
2023/06/13 13:54:31;;;;;;;1.75;1.30;;;;;;;;;;5016256;28;20387;-89
2023/06/13 13:56:58;;;;;;;1.80;1.00;;;;;;;;;;5035478;28;20022;-88
2023/06/13 13:59:24;;;;;;;1.20;1.10;;;;;;;;;;5024852;28;20125;-90
2023/06/13 14:01:49;;;;;;;2.13;1.00;;;;;;;;;;4999091;28;20465;-89
2023/06/13 14:04:18;;;;;;;2.15;1.30;;;;;;;;;;5017343;28;20033;-91
2023/06/13 14:06:44;;;;;;;2.75;1.85;;;;;;;;;;5031499;28;20040;-88
2023/06/13 14:09:11;;;;;;;4.20;2.00;;;;;;;;;;5071966;28;20028;-89
2023/06/13 14:11:36;;;;;;;3.55;2.38;;;;;;;;;;4975719;28;20486;-88
2023/06/13 14:14:02;;;;;;;4.75;3.05;;;;;;;;;;5018162;28;20034;-86
2023/06/13 14:16:28;;;;;;;3.63;2.47;;;;;;;;;;4987342;28;20030;-88
2023/06/13 14:18:53;;;;;;;5.28;2.28;;;;;;;;;;5003364;28;20113;-88
2023/06/13 14:21:19;;;;;;;3.22;0.88;;;;;;;;;;5023068;28;20111;-88
2023/06/13 14:23:45;;;;;;;2.05;1.38;;;;;;;;;;5000993;28;20377;-89
2023/06/13 14:26:11;;;;;;;2.17;1.30;;;;;;;;;;5016091;28;20018;-90
2023/06/13 14:28:38;;;;;;;1.85;1.02;;;;;;;;;;5044291;28;20051;-88
2023/06/13 14:31:03;;;;;;;1.55;1.13;;;;;;;;;;5025764;28;20088;-86
2023/06/13 14:33:29;;;;;;;2.85;1.65;;;;;;;;;;5027934;28;20028;-88
2023/06/13 14:35:55;;;;;;;3.55;1.80;;;;;;;;;;5015705;28;20026;-85
2023/06/13 14:38:20;;;;;;;4.70;1.75;;;;;;;;;;4999581;28;20110;-86
2023/06/13 14:40:45;;;;;;;3.72;1.52;;;;;;;;;;5009166;28;20147;-86
2023/06/13 14:43:11;;;;;;;5.03;1.60;;;;;;;;;;5008004;28;20379;-89
2023/06/13 14:45:36;;;;;;;2.30;1.50;;;;;;;;;;5007606;28;20047;-88
2023/06/13 14:48:02;;;;;;;2.53;1.40;;;;;;;;;;5015638;28;20041;-90
2023/06/13 14:50:28;;;;;;;2.05;1.83;;;;;;;;;;5021218;28;20032;-87
2023/06/13 14:52:53;;;;;;;1.85;1.58;;;;;;;;;;4988934;28;20073;-86
2023/06/13 14:55:18;;;;;;;3.75;2.35;;;;;;;;;;5033313;28;20582;-87
2023/06/13 14:57:45;;;;;;;2.75;2.17;;;;;;;;;;5017060;28;20510;-86
2023/06/13 15:00:11;;;;;;;3.38;2.47;;;;;;;;;;5034942;28;20024;-87
2023/06/13 15:02:37;;;;;;;5.50;2.70;;;;;;;;;;4995235;28;20026;-88
2023/06/13 15:05:03;;;;;;;4.05;1.70;;;;;;;;;;5011171;28;20027;-89
2023/06/13 15:07:28;;;;;;;4.90;1.90;;;;;;;;;;5014578;28;20530;-84
2023/06/13 15:09:54;;;;;;;4.05;3.08;;;;;;;;;;5031315;28;20446;-86
2023/06/13 15:12:20;;;;;;;4.30;2.28;;;;;;;;;;5030390;28;20028;-86